createdAt,value
2018-12-22T00:01:52.100Z,5.97
2018-12-22T00:04:22.521Z,5.57
2018-12-22T00:06:53.862Z,5.67
2018-12-22T00:09:24.344Z,5.37
2018-12-22T00:11:54.899Z,5.80
2018-12-22T00:14:25.388Z,5.50
2018-12-22T00:16:57.831Z,4.90
2018-12-22T00:19:28.312Z,5.20
2018-12-22T00:21:58.823Z,5.67
2018-12-22T00:24:29.302Z,5.47
2018-12-22T00:26:59.786Z,5.70
2018-12-22T00:29:30.663Z,5.77
2018-12-22T00:32:01.728Z,5.70
2018-12-22T00:34:32.368Z,6.17
2018-12-22T00:37:03.087Z,6.40
2018-12-22T00:39:33.554Z,5.90
2018-12-22T00:42:04.071Z,5.87
2018-12-22T00:44:34.593Z,5.40
2018-12-22T00:47:05.336Z,6.30
2018-12-22T00:49:35.867Z,6.47
2018-12-22T00:52:06.424Z,5.47
2018-12-22T00:54:36.914Z,5.50
2018-12-22T00:57:07.355Z,6.10
2018-12-22T00:59:37.843Z,6.67
2018-12-22T01:02:08.351Z,5.83
2018-12-22T01:04:38.882Z,5.27
2018-12-22T01:07:09.424Z,5.40
2018-12-22T01:09:39.910Z,5.73
2018-12-22T01:12:10.594Z,6.27
2018-12-22T01:14:41.096Z,5.40
2018-12-22T01:17:11.711Z,5.40
2018-12-22T01:19:42.948Z,6.70
2018-12-22T01:22:13.447Z,5.87
2018-12-22T01:24:43.874Z,6.43
2018-12-22T01:27:16.423Z,6.43
2018-12-22T01:29:46.988Z,6.30
2018-12-22T01:32:17.602Z,5.57
2018-12-22T01:34:48.049Z,6.17
2018-12-22T01:37:18.681Z,5.93
2018-12-22T01:39:49.180Z,6.40
2018-12-22T01:42:19.709Z,5.40
2018-12-22T01:44:50.825Z,6.57
2018-12-22T01:47:21.352Z,5.93
2018-12-22T01:49:51.833Z,6.37
2018-12-22T01:52:22.358Z,5.80
2018-12-22T01:54:52.806Z,5.70
2018-12-22T01:57:23.482Z,6.20
2018-12-22T01:59:53.925Z,5.70
2018-12-22T02:02:24.590Z,6.47
2018-12-22T02:04:55.057Z,5.80
2018-12-22T02:07:25.581Z,5.10
2018-12-22T02:09:56.079Z,6.20
2018-12-22T02:12:26.491Z,5.60
2018-12-22T02:14:56.990Z,6.33
2018-12-22T02:17:27.469Z,5.80
2018-12-22T02:19:57.930Z,5.60
2018-12-22T02:22:28.437Z,6.13
2018-12-22T02:24:58.857Z,5.40
2018-12-22T02:27:29.316Z,5.67
2018-12-22T02:29:59.757Z,6.23
2018-12-22T02:32:30.234Z,6.07
2018-12-22T02:35:00.681Z,5.43
2018-12-22T02:37:31.186Z,5.97
2018-12-22T02:40:01.637Z,5.30
2018-12-22T02:42:32.118Z,5.50
2018-12-22T02:45:02.622Z,6.07
2018-12-22T02:47:33.163Z,5.63
2018-12-22T02:50:03.730Z,5.33
2018-12-22T02:52:34.192Z,4.97
2018-12-22T02:55:05.214Z,5.60
2018-12-22T02:57:35.642Z,6.00
2018-12-22T03:00:09.839Z,5.43
2018-12-22T03:02:40.248Z,5.93
2018-12-22T03:05:10.773Z,5.87
2018-12-22T03:07:41.271Z,5.53
2018-12-22T03:10:11.789Z,6.00
2018-12-22T03:12:42.274Z,5.60
2018-12-22T03:15:12.830Z,5.53
2018-12-22T03:17:43.312Z,6.37
2018-12-22T03:20:13.903Z,6.07
2018-12-22T03:22:44.440Z,6.20
2018-12-22T03:25:14.907Z,6.23
2018-12-22T03:27:45.390Z,6.10
2018-12-22T03:30:15.892Z,6.67
2018-12-22T03:32:46.485Z,6.83
2018-12-22T03:35:17.056Z,6.40
2018-12-22T03:37:47.543Z,5.83
2018-12-22T03:40:18.041Z,5.60
2018-12-22T03:42:48.505Z,5.73
2018-12-22T03:45:19.035Z,5.47
2018-12-22T03:47:49.535Z,4.77
2018-12-22T03:50:19.934Z,5.80
2018-12-22T03:52:50.427Z,5.90
2018-12-22T03:55:20.912Z,4.93
2018-12-22T03:57:51.372Z,5.40
2018-12-22T04:00:21.891Z,4.90
2018-12-22T04:02:52.504Z,5.93
2018-12-22T04:05:23.027Z,5.43
2018-12-22T04:07:53.509Z,4.90
2018-12-22T04:10:24.351Z,3.87
2018-12-22T04:12:54.863Z,4.80
2018-12-22T04:15:25.426Z,4.60
2018-12-22T04:17:55.953Z,4.40
2018-12-22T04:20:26.778Z,4.23
2018-12-22T04:22:57.895Z,3.87
2018-12-22T04:25:28.590Z,3.20
2018-12-22T04:27:59.327Z,3.47
2018-12-22T04:30:30.104Z,3.47
2018-12-22T04:33:00.571Z,3.43
2018-12-22T04:35:31.618Z,3.07
2018-12-22T04:38:02.145Z,3.10
2018-12-22T04:40:33.037Z,3.20
2018-12-22T04:43:03.647Z,2.83
2018-12-22T04:45:34.427Z,2.97
2018-12-22T04:48:05.797Z,2.60
2018-12-22T04:50:37.162Z,2.47
2018-12-22T04:53:07.730Z,2.80
2018-12-22T04:55:38.282Z,2.50
2018-12-22T04:58:08.800Z,2.73
2018-12-22T05:00:39.943Z,2.53
2018-12-22T05:03:11.855Z,2.30
2018-12-22T05:05:43.224Z,2.43
2018-12-22T05:08:13.732Z,2.13
2018-12-22T05:10:44.139Z,2.57
2018-12-22T05:13:14.630Z,2.60
2018-12-22T05:15:45.239Z,2.20
2018-12-22T05:18:15.757Z,3.20
2018-12-22T05:20:46.248Z,3.53
2018-12-22T05:23:17.007Z,3.23
2018-12-22T05:25:47.620Z,2.57
2018-12-22T05:28:18.139Z,2.90
2018-12-22T05:30:48.625Z,3.17
2018-12-22T05:33:19.244Z,2.67
2018-12-22T05:35:49.683Z,2.73
2018-12-22T05:38:20.213Z,2.70
2018-12-22T05:40:50.722Z,2.80
2018-12-22T05:43:22.668Z,3.00
2018-12-22T05:45:58.479Z,2.73
2018-12-22T05:48:28.947Z,3.10
2018-12-22T05:50:59.441Z,3.23
2018-12-22T05:53:30.955Z,3.60
2018-12-22T05:56:01.685Z,3.90
2018-12-22T05:58:32.824Z,3.20
2018-12-22T06:01:03.375Z,3.67
2018-12-22T06:03:33.946Z,3.70
2018-12-22T06:06:04.619Z,3.40
2018-12-22T06:08:35.200Z,3.40
2018-12-22T06:11:05.618Z,3.30
2018-12-22T06:13:36.236Z,3.37
2018-12-22T06:16:06.778Z,3.17
2018-12-22T06:18:37.367Z,3.23
2018-12-22T06:21:07.906Z,3.47
2018-12-22T06:23:38.446Z,3.30
2018-12-22T06:26:08.941Z,3.80
2018-12-22T06:28:39.486Z,3.37
2018-12-22T06:31:10.078Z,3.97
2018-12-22T06:33:40.583Z,3.77
2018-12-22T06:36:11.194Z,3.40
2018-12-22T06:38:41.718Z,3.07
2018-12-22T06:41:12.205Z,3.00
2018-12-22T06:43:42.775Z,2.70
2018-12-22T06:46:13.260Z,3.93
2018-12-22T06:48:43.757Z,3.00
2018-12-22T06:51:14.230Z,3.00
2018-12-22T06:53:44.741Z,3.17
2018-12-22T06:56:15.218Z,3.17
2018-12-22T06:58:45.668Z,3.27
2018-12-22T07:01:16.144Z,2.70
2018-12-22T07:03:46.724Z,3.20
2018-12-22T07:06:17.603Z,2.93
2018-12-22T07:08:48.093Z,3.10
2018-12-22T07:11:18.540Z,2.70
2018-12-22T07:13:49.022Z,2.80
2018-12-22T07:16:19.503Z,2.37
2018-12-22T07:18:49.928Z,2.60
2018-12-22T07:21:20.389Z,2.43
2018-12-22T07:23:50.834Z,2.30
2018-12-22T07:26:21.280Z,2.33
2018-12-22T07:28:51.733Z,2.53
2018-12-22T07:31:22.175Z,2.87
2018-12-22T07:33:52.644Z,2.73
2018-12-22T07:36:25.245Z,3.30
2018-12-22T07:38:55.715Z,2.57
2018-12-22T07:41:26.239Z,2.30
2018-12-22T07:43:56.976Z,1.93
2018-12-22T07:46:27.404Z,2.30
2018-12-22T07:48:57.888Z,2.37
2018-12-22T07:51:28.450Z,1.67
2018-12-22T07:53:59.035Z,1.70
2018-12-22T07:56:29.524Z,1.50
2018-12-22T07:58:59.971Z,1.60
2018-12-22T08:01:30.458Z,1.67
2018-12-22T08:04:01.017Z,1.53
2018-12-22T08:06:31.568Z,1.73
2018-12-22T08:09:02.107Z,1.30
2018-12-22T08:11:32.626Z,1.53
2018-12-22T08:14:03.369Z,1.17
2018-12-22T08:16:33.862Z,1.47
2018-12-22T08:19:05.819Z,1.10
2018-12-22T08:21:36.322Z,1.03
2018-12-22T08:24:06.769Z,1.23
2018-12-22T08:26:37.530Z,1.20
2018-12-22T08:29:07.990Z,1.10
2018-12-22T08:31:38.704Z,1.10
2018-12-22T08:34:09.527Z,1.53
2018-12-22T08:36:40.095Z,1.60
2018-12-22T08:39:10.542Z,1.60
2018-12-22T08:41:41.072Z,1.30
2018-12-22T08:44:11.918Z,1.53
2018-12-22T08:46:42.358Z,1.93
2018-12-22T08:49:12.778Z,1.73
2018-12-22T08:51:43.251Z,1.53
2018-12-22T08:54:14.738Z,1.80
2018-12-22T08:56:45.601Z,1.87
2018-12-22T08:59:16.090Z,1.70
2018-12-22T09:01:46.520Z,1.93
2018-12-22T09:04:17.026Z,1.70
2018-12-22T09:06:47.567Z,2.50
2018-12-22T09:09:18.032Z,2.83
2018-12-22T09:11:48.536Z,2.30
2018-12-22T09:14:18.995Z,2.27
2018-12-22T09:16:49.511Z,2.20
2018-12-22T09:19:19.995Z,2.03
2018-12-22T09:21:50.462Z,2.23
2018-12-22T09:24:20.903Z,2.53
2018-12-22T09:26:51.913Z,2.50
2018-12-22T09:29:22.372Z,2.30
2018-12-22T09:31:52.784Z,2.60
2018-12-22T09:34:23.333Z,1.93
2018-12-22T09:36:53.828Z,2.43
2018-12-22T09:39:24.392Z,2.30
2018-12-22T09:41:54.974Z,2.77
2018-12-22T09:44:25.423Z,2.20
2018-12-22T09:46:55.950Z,2.17
2018-12-22T09:49:26.408Z,2.37
2018-12-22T09:51:56.867Z,1.97
2018-12-22T09:54:27.341Z,1.70
2018-12-22T09:56:57.926Z,1.97
2018-12-22T09:59:28.385Z,1.90
2018-12-22T10:01:58.850Z,1.83
2018-12-22T10:04:29.304Z,2.00
2018-12-22T10:06:59.700Z,1.70
2018-12-22T10:09:30.233Z,1.87
2018-12-22T10:12:00.695Z,1.90
2018-12-22T10:14:31.160Z,2.17
2018-12-22T10:17:01.698Z,2.07
2018-12-22T10:19:32.138Z,1.93
2018-12-22T10:22:02.649Z,1.80
2018-12-22T10:24:33.180Z,1.70
2018-12-22T10:27:03.655Z,1.80
2018-12-22T10:29:34.077Z,1.87
2018-12-22T10:32:04.592Z,1.97
2018-12-22T10:34:35.208Z,1.97
2018-12-22T10:37:05.658Z,2.10
2018-12-22T10:39:36.173Z,2.10
2018-12-22T10:42:06.696Z,2.40
2018-12-22T10:44:37.335Z,2.33
2018-12-22T10:47:09.156Z,2.23
2018-12-22T10:49:39.783Z,2.10
2018-12-22T10:52:10.284Z,2.33
2018-12-22T10:54:40.779Z,1.90
2018-12-22T10:57:11.219Z,2.00
2018-12-22T10:59:41.714Z,2.20
2018-12-22T11:02:12.269Z,1.60
2018-12-22T11:04:42.775Z,2.17
2018-12-22T11:07:13.391Z,1.67
2018-12-22T11:09:44.007Z,1.80
2018-12-22T11:12:14.491Z,2.07
2018-12-22T11:14:45.028Z,1.50
2018-12-22T11:17:15.548Z,2.00
2018-12-22T11:19:46.045Z,1.80
2018-12-22T11:22:16.563Z,1.83
2018-12-22T11:24:47.075Z,1.90
2018-12-22T11:27:17.564Z,1.87
2018-12-22T11:29:48.094Z,2.47
2018-12-22T11:32:18.646Z,2.20
2018-12-22T11:34:49.135Z,2.27
2018-12-22T11:37:19.602Z,2.33
2018-12-22T11:39:50.309Z,2.43
2018-12-22T11:42:20.756Z,2.03
2018-12-22T11:44:51.666Z,2.03
2018-12-22T11:47:36.604Z,2.27
2018-12-22T11:50:11.912Z,2.17
2018-12-22T11:52:42.440Z,2.10
2018-12-22T11:55:12.873Z,2.27
2018-12-22T11:57:43.422Z,2.40
2018-12-22T12:00:14.048Z,2.17
2018-12-22T12:02:44.921Z,2.10
2018-12-22T12:05:15.384Z,2.60
2018-12-22T12:07:46.022Z,2.10
2018-12-22T12:10:16.493Z,2.90
2018-12-22T12:12:47.064Z,2.43
2018-12-22T12:15:22.863Z,2.17
2018-12-22T12:20:01.711Z,1.60
2018-12-22T12:22:32.155Z,1.67
2018-12-22T12:25:02.636Z,1.90
2018-12-22T12:27:33.127Z,1.93
2018-12-22T12:30:06.220Z,1.00
2018-12-22T12:32:36.683Z,0.70
2018-12-22T12:35:08.032Z,0.60
2018-12-22T12:37:38.604Z,0.77
2018-12-22T12:40:12.527Z,0.63
2018-12-22T12:42:42.964Z,1.10
2018-12-22T12:45:15.126Z,1.30
2018-12-22T12:47:47.207Z,1.43
2018-12-22T12:50:20.989Z,1.60
2018-12-22T12:52:51.596Z,1.30
2018-12-22T12:55:21.999Z,1.23
2018-12-22T12:57:52.467Z,1.40
2018-12-22T13:00:23.083Z,1.70
2018-12-22T13:02:53.512Z,1.83
2018-12-22T13:05:23.967Z,2.30
2018-12-22T13:07:54.538Z,2.73
2018-12-22T13:10:25.042Z,2.27
2018-12-22T13:14:07.932Z,2.73
2018-12-22T13:16:38.702Z,2.90
2018-12-22T13:19:09.227Z,3.13
2018-12-22T13:21:42.188Z,3.40
2018-12-22T13:24:12.783Z,3.30
2018-12-22T13:26:43.266Z,3.50
2018-12-22T13:29:13.712Z,3.23
2018-12-22T13:31:45.578Z,3.90
2018-12-22T13:34:16.016Z,3.57
2018-12-22T13:36:46.441Z,3.03
2018-12-22T13:39:20.681Z,3.20
2018-12-22T13:41:51.081Z,2.63
2018-12-22T13:44:21.644Z,3.53
2018-12-22T13:46:52.119Z,2.60
2018-12-22T13:49:22.651Z,2.60
2018-12-22T13:51:53.185Z,2.63
2018-12-22T13:54:26.595Z,2.90
2018-12-22T13:56:57.083Z,1.97
2018-12-22T13:59:27.565Z,2.00
2018-12-22T14:02:02.342Z,2.03
2018-12-22T14:04:36.206Z,2.10
2018-12-22T14:07:10.248Z,2.07
2018-12-22T14:09:40.800Z,1.93
2018-12-22T14:12:11.363Z,2.10
2018-12-22T14:14:43.071Z,2.30
2018-12-22T14:17:19.674Z,2.23
2018-12-22T14:20:13.548Z,2.20
2018-12-22T14:22:44.859Z,2.13
2018-12-22T14:25:27.834Z,2.17
2018-12-22T14:27:58.327Z,2.90
2018-12-22T14:30:28.881Z,3.30
2018-12-22T14:32:59.400Z,3.80
2018-12-22T14:35:39.625Z,3.13
2018-12-22T14:38:10.103Z,2.63
2018-12-22T14:40:40.615Z,2.17
2018-12-22T14:43:11.126Z,2.80
2018-12-22T14:45:41.619Z,3.23
2018-12-22T14:48:12.138Z,2.43
2018-12-22T14:50:42.622Z,2.43
2018-12-22T14:53:13.070Z,2.10
2018-12-22T14:55:43.525Z,2.30
2018-12-22T14:58:21.368Z,1.90
2018-12-22T15:00:52.389Z,1.80
2018-12-22T15:03:23.416Z,2.20
2018-12-22T15:05:54.471Z,2.97
2018-12-22T15:08:25.813Z,2.27
2018-12-22T15:10:56.938Z,2.23
2018-12-22T15:13:27.910Z,2.93
2018-12-22T15:15:59.274Z,2.87
2018-12-22T15:18:30.058Z,3.13
2018-12-22T15:21:01.199Z,2.93
2018-12-22T15:23:32.082Z,3.30
2018-12-22T15:26:02.834Z,2.77
2018-12-22T15:28:33.232Z,4.60
2018-12-22T15:31:04.664Z,2.10
2018-12-22T15:33:35.320Z,2.23
2018-12-22T15:36:06.192Z,2.23
2018-12-22T15:38:36.984Z,2.43
2018-12-22T15:41:07.502Z,1.70
2018-12-22T15:43:38.099Z,1.60
2018-12-22T15:46:08.627Z,1.57
2018-12-22T15:48:39.802Z,1.43
2018-12-22T15:51:10.343Z,1.90
2018-12-22T15:53:40.814Z,1.80
2018-12-22T15:56:11.291Z,1.90
2018-12-22T15:58:41.827Z,1.60
2018-12-22T16:01:12.301Z,1.50
2018-12-22T16:03:42.743Z,1.50
2018-12-22T16:06:13.239Z,2.20
2018-12-22T16:08:43.738Z,2.30
2018-12-22T16:11:14.234Z,2.70
2018-12-22T16:13:44.642Z,2.77
2018-12-22T16:16:15.287Z,2.30
2018-12-22T16:18:45.725Z,2.47
2018-12-22T16:21:16.233Z,2.70
2018-12-22T16:23:46.849Z,3.30
2018-12-22T16:26:18.396Z,3.60
2018-12-22T16:29:00.302Z,3.37
2018-12-22T16:31:30.788Z,3.37
2018-12-22T16:34:01.238Z,4.10
2018-12-22T16:36:31.683Z,3.37
2018-12-22T16:39:02.195Z,3.30
2018-12-22T16:41:32.657Z,2.83
2018-12-22T16:44:03.499Z,3.30
2018-12-22T16:46:33.913Z,2.70
2018-12-22T16:49:04.390Z,3.13
2018-12-22T16:51:34.845Z,2.70
2018-12-22T16:54:05.574Z,2.97
2018-12-22T16:56:36.119Z,3.20
2018-12-22T16:59:07.047Z,2.93
2018-12-22T17:02:00.925Z,3.10
2018-12-22T17:04:31.609Z,4.00
2018-12-22T17:07:02.019Z,2.80
2018-12-22T17:09:32.540Z,3.03
2018-12-22T17:12:02.966Z,3.63
2018-12-22T17:14:33.418Z,3.50
2018-12-22T17:17:03.906Z,3.30
2018-12-22T17:19:34.407Z,3.50
2018-12-22T17:23:16.748Z,3.57
2018-12-22T17:25:58.234Z,3.40
2018-12-22T17:28:28.847Z,3.43
2018-12-22T17:30:59.754Z,2.80
2018-12-22T17:33:30.384Z,2.40
2018-12-22T17:36:00.942Z,2.20
2018-12-22T17:38:31.500Z,2.00
2018-12-22T17:41:03.046Z,2.50
2018-12-22T17:43:33.794Z,2.63
2018-12-22T17:46:04.371Z,3.47
2018-12-22T17:48:34.891Z,3.37
2018-12-22T17:51:05.379Z,4.40
2018-12-22T17:53:35.873Z,4.87
2018-12-22T17:56:06.585Z,4.90
2018-12-22T17:58:37.394Z,5.37
2018-12-22T18:01:08.112Z,6.00
2018-12-22T18:03:39.221Z,6.33
2018-12-22T18:06:09.817Z,6.03
2018-12-22T18:08:40.345Z,6.23
2018-12-22T18:11:10.834Z,5.70
2018-12-22T18:13:41.284Z,7.00
2018-12-22T18:16:11.935Z,6.23
2018-12-22T18:18:42.431Z,7.10
2018-12-22T18:21:12.967Z,7.47
2018-12-22T18:23:43.582Z,6.10
2018-12-22T18:26:14.136Z,5.07
2018-12-22T18:28:44.604Z,4.83
2018-12-22T18:31:15.156Z,5.27
2018-12-22T18:33:45.575Z,5.07
2018-12-22T18:36:18.446Z,4.70
2018-12-22T18:38:48.884Z,4.33
2018-12-22T18:41:19.377Z,4.90
2018-12-22T18:43:49.840Z,4.10
2018-12-22T18:46:20.418Z,5.17
2018-12-22T18:48:50.907Z,4.63
2018-12-22T18:51:21.398Z,3.03
2018-12-22T18:53:52.024Z,3.97
2018-12-22T18:56:22.548Z,2.97
2018-12-22T18:58:53.371Z,5.03
2018-12-22T19:01:24.038Z,3.00
2018-12-22T19:03:54.513Z,3.57
2018-12-22T19:06:25.280Z,5.43
2018-12-22T19:08:59.846Z,3.60
2018-12-22T19:11:30.402Z,4.43
2018-12-22T19:14:00.923Z,4.13
2018-12-22T19:16:31.442Z,4.10
2018-12-22T19:19:01.986Z,4.43
2018-12-22T19:21:32.528Z,4.27
2018-12-22T19:24:33.510Z,4.10
2018-12-22T19:27:04.163Z,3.77
2018-12-22T19:29:34.743Z,3.40
2018-12-22T19:32:05.216Z,3.93
2018-12-22T19:34:35.757Z,4.40
2018-12-22T19:37:06.337Z,4.60
2018-12-22T19:39:36.820Z,4.50
2018-12-22T19:42:08.232Z,3.63
2018-12-22T19:44:39.978Z,3.87
2018-12-22T19:47:10.456Z,3.97
2018-12-22T19:49:41.846Z,4.80
2018-12-22T19:52:12.336Z,4.50
2018-12-22T19:54:42.922Z,4.50
2018-12-22T19:57:13.387Z,3.83
2018-12-22T19:59:44.038Z,4.50
2018-12-22T20:02:14.474Z,4.27
2018-12-22T20:04:45.994Z,4.47
2018-12-22T20:07:16.469Z,5.00
2018-12-22T20:09:46.910Z,4.20
2018-12-22T20:12:17.397Z,3.90
2018-12-22T20:14:47.823Z,4.27
2018-12-22T20:17:18.344Z,4.90
2018-12-22T20:19:48.843Z,4.43
2018-12-22T20:22:21.213Z,3.63
2018-12-22T20:24:51.640Z,3.70
2018-12-22T20:27:22.280Z,3.50
2018-12-22T20:29:52.711Z,4.33
2018-12-22T20:32:23.276Z,3.53
2018-12-22T20:34:53.737Z,3.90
2018-12-22T20:37:24.218Z,3.80
2018-12-22T20:39:54.737Z,3.90
2018-12-22T20:42:25.162Z,3.50
2018-12-22T20:44:55.668Z,4.10
2018-12-22T20:47:26.123Z,3.40
2018-12-22T20:49:56.610Z,4.20
2018-12-22T20:52:27.092Z,3.50
2018-12-22T20:54:57.582Z,3.63
2018-12-22T20:57:28.043Z,3.40
2018-12-22T20:59:58.465Z,3.63
2018-12-22T21:02:30.856Z,3.80
2018-12-22T21:05:01.402Z,3.80
2018-12-22T21:07:31.866Z,3.60
2018-12-22T21:10:02.375Z,3.90
2018-12-22T21:12:32.808Z,3.87
2018-12-22T21:15:03.435Z,4.10
2018-12-22T21:17:33.930Z,4.77
2018-12-22T21:20:04.668Z,7.13
2018-12-22T21:22:35.217Z,4.57
2018-12-22T21:25:06.112Z,3.13
2018-12-22T21:27:36.611Z,4.00
2018-12-22T21:30:07.662Z,3.60
2018-12-22T21:32:38.237Z,4.43
2018-12-22T21:35:08.871Z,3.90
2018-12-22T21:37:39.386Z,4.77
2018-12-22T21:40:10.008Z,5.17
2018-12-22T21:42:40.550Z,5.20
2018-12-22T21:45:11.123Z,5.00
2018-12-22T21:47:41.610Z,5.47
2018-12-22T21:50:12.076Z,5.40
2018-12-22T21:52:42.542Z,4.93
2018-12-22T21:55:12.996Z,4.93
2018-12-22T21:57:43.490Z,5.03
2018-12-22T22:00:13.953Z,4.77
2018-12-22T22:02:44.456Z,4.57
2018-12-22T22:05:14.926Z,4.97
2018-12-22T22:07:45.392Z,3.60
2018-12-22T22:10:15.846Z,3.83
2018-12-22T22:12:46.274Z,4.17
2018-12-22T22:15:16.744Z,3.33
2018-12-22T22:17:47.233Z,3.63
2018-12-22T22:20:17.712Z,3.63
2018-12-22T22:22:48.169Z,3.50
2018-12-22T22:25:18.620Z,3.10
2018-12-22T22:27:49.216Z,3.37
2018-12-22T22:30:20.954Z,3.77
2018-12-22T22:32:51.552Z,4.20
2018-12-22T22:35:22.034Z,5.00
2018-12-22T22:37:52.520Z,5.80
2018-12-22T22:40:23.007Z,7.57
2018-12-22T22:42:53.434Z,7.30
2018-12-22T22:45:23.866Z,7.00
2018-12-22T22:47:54.317Z,6.53
2018-12-22T22:50:24.801Z,6.40
2018-12-22T22:52:55.270Z,7.03
2018-12-22T22:55:25.843Z,7.27
2018-12-22T22:57:56.388Z,5.87
2018-12-22T23:00:36.832Z,5.90
2018-12-22T23:03:07.344Z,5.23
2018-12-22T23:05:38.012Z,5.73
2018-12-22T23:08:08.521Z,4.77
2018-12-22T23:10:39.425Z,5.10
2018-12-22T23:13:10.066Z,5.20
2018-12-22T23:15:40.566Z,5.23
2018-12-22T23:18:11.128Z,4.80
2018-12-22T23:20:41.630Z,5.87
2018-12-22T23:23:12.154Z,5.43
2018-12-22T23:25:42.667Z,5.20
2018-12-22T23:28:13.121Z,5.77
2018-12-22T23:30:43.677Z,5.67
2018-12-22T23:33:14.145Z,5.50
2018-12-22T23:35:45.346Z,5.63
2018-12-22T23:38:15.817Z,5.47
2018-12-22T23:40:46.322Z,5.20
2018-12-22T23:43:16.811Z,5.30
2018-12-22T23:45:47.437Z,5.17
2018-12-22T23:48:17.945Z,4.90
2018-12-22T23:50:48.420Z,5.57
2018-12-22T23:53:18.875Z,5.37
2018-12-22T23:55:49.403Z,6.47
2018-12-22T23:58:19.821Z,6.40
